Terminal Aerodrome Forecast
Issued by NWS

Current Version | Previous Version | Text Only | Print | Product List | Glossary On
Versions: 1 2 3 4 5 6 7 8 9 10 11 12 13 14
171
FTUS43 KOAX 172335
TAFBFF
TAF
KBFF 172335Z 1800/1824 25015KT P6SM SCT120 BKN200
     FM180300 14012KT P6SM BKN150
     FM181900 34015G23KT P6SM BKN100=

USA.gov is the U.S. government's official web portal to all federal, state and local government web resources and services.